Карточка аэропорта UATT

Внимание!
Информация на этой странице в стадии наполнения.
Если вы не увидели какой-то информации, или заметили неточность - пожалуйста сообщите нам!
Спасибо!
Команда RU-STAFF
Название аэропортаАктобе
Название аэропорта (англ.)Aktobe
Превышение738 ft. (224.9 m.)
Координаты50°14.748', 57°12.402'
Высота перехода10000ft
Эшелон переходаFL120, QNH<733:FL130
Коды ответчика3440-3447, 3540-3547
Зона ОрВДАктобе РПИ (UATT)
Данные METARUATT 131800Z 02006MPS 9999 FEW040CB 19/15 Q0999 TEMPO VRB18MPS 3100 -TSRA SQ BKN015CB RMK QFE730/0973
Проноз погоды (TAF)UATT 131703Z 1318/1418 03005MPS 9999 BKN020CB TX26/1410Z TN17/1400Z TEMPO 1318/1320 VRB18MPS -TSRA SQ BKN015CB TEMPO 1320/1402 33005MPS 2000 BR BKN005 BKN015CB TEMPO 1402/1406 3100 -SHRA BKN007 BKN015CB TEMPO 1406/1415 04014MPS 3100 -TSRA BKN015CB
NOTAMshow/hide NOTAM
AWOS   TABLE

Информация о ВПП

ВПП Длина ВПП (м.) Покрытие Курс ВПП Частота ILS
133202Бетон135111.7
313202Бетон315111.7

Диспетчерские позиции




Спутниковое изображение